OMDBVAAH

Guest
Details From OMDB - Dubai Intl
To VAAH - Ahmedabad
Flight Number -
Tags Generated
Created
Modified
Stats Distance 955 nm / 1,770 km
Max Altitude 0 ft / 0 m
Waypoints 3
Social Downloads 2
Likes 0
Share VATSIM

Download

Looking for another format? Having issues loading an existing format? Contact us
Advertisement - Login to hide

Notes

Generated

Route

OMDB AAE VAAH

ID Type Via Altitude Latitude Longitude Leg Dist Tot Dist Heading (true) Name
O OMDB APT - 0 ft / 0 m 25.26213˚ 55.34757˚ - 0 nm - -
AAE VOR - 0 ft / 0 m 23.07220˚ 72.62495˚ 955 nm 955 nm 94° / 101° AHMEDABAD VOR-DME
O VAAH APT - 0 ft / 0 m 23.06600˚ 72.62265˚ 0 nm 955 nm 199° / 199° -

Altitude Profile

Advertisement - Login to hide

Weather


0- 5 10 15 20 25 30 35+ Temperature / ° C

Clouds and Precipitation
Forecast for 2018-06-24 12:00 UTC. Updated 3 hours ago

Ground ~20,000 ft ~40,000 ft Winds

OMDB

Details ICAO OMDB (DXB)
Name DUBAI INTL
Region United Arab Emirates
Timezone Asia/Dubai (UTC+4.0)
Stats Elevation 62 ft / 19 m (AMSL)
Location 25.254912° 55.364260°
Runways 2
Magnetic Variation 2.072° E

METAR

OMDB 241300Z 27009KT 170V330 CAVOK 36/23 Q0999 NOSIG

Decode

TAF

TAF OMDB 241057Z 2412/2518 27010KT 8000 NSC BECMG 2418/2420 19005KT PROB30 2501/2504 4000 HZ BECMG 2505/2507 28010KT BECMG 2516/2518 20005KT

Decode

Departure Runways

ID Width Length Bearing (true) Bearing (mag) Surface Threshold Offset Overrun Length
12L 197 ft / 60 m 13,124 ft / 4,000 m 121.49° 119.42° Asphalt 1,312 ft / 400 m 395 ft / 120 m
12R 151 ft / 46 m 13,139 ft / 4,005 m 121.48° 119.41° Asphalt 394 ft / 120 m 197 ft / 60 m
30L 151 ft / 46 m 13,139 ft / 4,005 m 301.50° 299.43° Asphalt 2,953 ft / 900 m 197 ft / 60 m
30R 197 ft / 60 m 13,124 ft / 4,000 m 301.51° 299.44° Asphalt 0 ft / 0 m 395 ft / 120 m

VAAH

Details ICAO VAAH (AMD)
Name AHMEDABAD
Region India
Timezone Asia/Kolkata (UTC+5.5)
Stats Elevation 189 ft / 58 m (AMSL)
Location 23.077196° 72.634632°
Runways 1
Magnetic Variation 0.512° E

METAR

VAAH 241300Z 24007KT 5000 HZ FEW080 33/25 Q0999 NOSIG

Decode

TAF

TAF TAF VAAH 241100Z 2412/2518 24007KT 4000 HZ SCT020 SCT080 BECMG 2501/2503 24006KT 1500 BR SCT015 SCT080 BECMG 2504/2506 23008KT 4000 HZ SCT020 SCT080 BECMG 2507/2509 6000 TEMPO 2513/2517 3000 /U2013TSRA SCT020 FEW030CB BKN080

Decode

Destination Runways

ID Width Length Bearing (true) Bearing (mag) Surface Threshold Offset Overrun Length
05 150 ft / 46 m 11,464 ft / 3,494 m 44.55° 44.04° Asphalt 0 ft / 0 m 210 ft / 64 m
23 150 ft / 46 m 11,464 ft / 3,494 m 224.56° 224.05° Asphalt 0 ft / 0 m 195 ft / 59 m

Approach Navaids

Runway Type Ident Frequency Range Bearing (true) Bearing (mag) Slope Elevation
23 Localiser AHD 110.30 MHz 18 nm / 33 km 224.70° 224.19° - 180 ft / 55 m (AMSL)
23 Glidescope AHD 110.30 MHz 10 nm / 19 km 224.56° 224.04° 3.00° 186 ft / 57 m (AMSL)
23 DME AHD 110.30 MHz 18 nm / 33 km - - - 180 ft / 55 m (AMSL)

Popular Alternatives